Time;durP1;ratioP1;P1;durP2;ratioP2;P2;SDS_P1;SDS_P2;PMS_P1;PMS_P2;Temp;Humidity;BMP_temperature;BMP_pressure;BME280_temperature;BME280_humidity;BME280_pressure;Samples;Min_cycle;Max_cycle;Signal;HPM_P1;HPM_P2
2023/09/03 00:01:35;;;;;;;4.97;2.58;;;16.30;43.90;;;;;;5031627;28;20102;-80
2023/09/03 00:04:02;;;;;;;3.10;2.60;;;16.30;45.90;;;;;;5041239;28;20052;-82
2023/09/03 00:06:29;;;;;;;2.58;2.38;;;16.20;47.00;;;;;;5042628;28;20052;-80
2023/09/03 00:08:56;;;;;;;3.25;2.70;;;16.20;43.50;;;;;;5029973;28;20408;-82
2023/09/03 00:11:23;;;;;;;3.42;3.08;;;16.10;48.30;;;;;;5021350;28;20076;-83
2023/09/03 00:13:50;;;;;;;3.15;2.70;;;16.10;44.70;;;;;;5037740;28;20045;-89
2023/09/03 00:16:17;;;;;;;3.22;2.83;;;16.10;47.70;;;;;;5035816;28;20056;-80
2023/09/03 00:18:44;;;;;;;2.70;2.50;;;16.10;52.30;;;;;;5032302;28;20044;-81
2023/09/03 00:21:10;;;;;;;3.85;3.00;;;16.10;71.20;;;;;;5044055;28;20052;-83
2023/09/03 00:23:37;;;;;;;3.03;2.72;;;16.10;71.70;;;;;;5061151;28;20052;-89
2023/09/03 00:26:04;;;;;;;3.63;2.97;;;16.10;81.90;;;;;;5036112;28;20478;-80
2023/09/03 00:28:31;;;;;;;3.35;3.05;;;16.00;83.40;;;;;;5045699;28;20044;-82
2023/09/03 00:31:07;;;;;;;3.13;2.70;;;16.00;86.50;;;;;;5039709;28;20048;-82
2023/09/03 00:33:35;;;;;;;3.53;3.22;;;16.00;90.20;;;;;;5061020;28;20080;-87
2023/09/03 00:36:05;;;;;;;3.78;2.95;;;16.00;88.10;;;;;;5053046;28;20071;-81
2023/09/03 00:38:32;;;;;;;2.83;2.53;;;15.90;90.90;;;;;;5041905;28;20051;-80
2023/09/03 00:40:59;;;;;;;3.17;2.85;;;15.90;93.20;;;;;;5045391;28;20427;-80
2023/09/03 00:43:28;;;;;;;3.03;2.67;;;16.00;95.30;;;;;;5027641;28;20040;-81
2023/09/03 00:45:54;;;;;;;3.53;2.70;;;15.90;94.50;;;;;;5027733;28;20044;-80
2023/09/03 00:48:28;;;;;;;4.00;3.53;;;15.90;97.20;;;;;;5034397;28;20651;-81
2023/09/03 00:50:56;;;;;;;3.38;3.08;;;15.90;97.40;;;;;;5055482;28;20160;-81
2023/09/03 00:53:23;;;;;;;2.85;2.65;;;15.90;99.20;;;;;;5021518;28;20053;-82
2023/09/03 00:55:50;;;;;;;3.20;2.90;;;15.90;93.50;;;;;;5029863;28;20053;-81
2023/09/03 00:58:17;;;;;;;3.20;2.90;;;15.80;96.00;;;;;;5020235;28;20141;-81
2023/09/03 01:00:45;;;;;;;3.60;2.85;;;15.80;96.20;;;;;;5037970;28;20106;-81
2023/09/03 01:03:13;;;;;;;3.30;2.70;;;15.80;97.60;;;;;;5021316;28;20134;-81
2023/09/03 01:05:41;;;;;;;3.65;2.83;;;15.80;94.50;;;;;;5052666;28;20567;-80
2023/09/03 01:08:08;;;;;;;4.10;2.88;;;15.70;84.70;;;;;;5041589;28;20100;-81
2023/09/03 01:10:45;;;;;;;2.78;2.47;;;15.70;88.80;;;;;;5041165;28;20095;-80
2023/09/03 01:13:17;;;;;;;2.47;2.17;;;15.70;90.00;;;;;;5037064;28;20058;-80
2023/09/03 01:15:47;;;;;;;2.92;2.58;;;15.70;94.50;;;;;;5025765;28;20087;-79
2023/09/03 01:18:19;;;;;;;3.30;2.80;;;15.70;96.10;;;;;;5054398;28;20136;-81
2023/09/03 01:20:46;;;;;;;3.10;2.80;;;15.70;96.00;;;;;;5043496;28;20539;-81
2023/09/03 01:23:46;;;;;;;3.75;2.30;;;15.60;94.90;;;;;;5060801;28;20048;-80
2023/09/03 01:26:38;;;;;;;3.05;2.75;;;15.60;94.70;;;;;;5044559;28;20058;-80
2023/09/03 01:29:05;;;;;;;3.63;2.95;;;15.50;94.80;;;;;;5049695;28;20041;-81
2023/09/03 01:31:32;;;;;;;3.42;3.03;;;15.50;87.80;;;;;;5072737;23;20131;-86
2023/09/03 01:34:02;;;;;;;3.13;2.70;;;15.50;89.30;;;;;;5041493;28;20075;-85
2023/09/03 01:36:30;;;;;;;3.08;2.78;;;15.50;89.70;;;;;;5027478;28;20059;-85
2023/09/03 01:38:59;;;;;;;3.40;2.80;;;15.40;91.50;;;;;;5016543;28;20139;-86
2023/09/03 01:41:26;;;;;;;3.60;2.83;;;15.40;84.80;;;;;;5021125;28;20439;-86
2023/09/03 01:43:53;;;;;;;2.95;2.65;;;15.40;90.10;;;;;;5038163;28;20116;-86
2023/09/03 01:46:23;;;;;;;3.70;3.40;;;15.30;78.00;;;;;;5035388;23;20053;-84
2023/09/03 01:49:27;;;;;;;3.60;3.30;;;15.30;78.90;;;;;;5051248;28;20056;-84
2023/09/03 01:52:05;;;;;;;3.40;3.10;;;15.20;77.80;;;;;;5057109;28;20072;-82
2023/09/03 01:54:37;;;;;;;3.38;3.05;;;15.20;80.00;;;;;;5054918;28;20131;-82
2023/09/03 01:57:11;;;;;;;4.00;2.72;;;15.10;83.60;;;;;;5020451;28;20569;-82
2023/09/03 01:59:46;;;;;;;2.90;2.60;;;15.10;81.00;;;;;;5036369;28;20044;-84
2023/09/03 02:02:13;;;;;;;3.22;2.92;;;15.10;85.30;;;;;;5035919;28;20053;-84
2023/09/03 02:04:40;;;;;;;3.58;3.28;;;15.10;87.40;;;;;;5024830;28;20534;-81
2023/09/03 02:07:06;;;;;;;3.83;3.17;;;15.10;81.10;;;;;;5041333;28;20041;-85
2023/09/03 02:09:33;;;;;;;3.90;3.55;;;15.00;73.50;;;;;;5045040;28;20103;-85
2023/09/03 02:12:01;;;;;;;3.50;3.08;;;14.90;72.60;;;;;;5022371;28;20072;-84
2023/09/03 02:14:28;;;;;;;3.88;3.47;;;14.90;75.40;;;;;;5035665;28;20037;-82
2023/09/03 02:16:55;;;;;;;4.28;3.88;;;14.90;93.40;;;;;;5019387;28;20136;-82
2023/09/03 02:19:22;;;;;;;4.47;3.55;;;14.90;99.90;;;;;;5039934;28;20053;-81
2023/09/03 02:21:50;;;;;;;3.55;3.13;;;14.90;99.90;;;;;;5045752;28;20048;-83
2023/09/03 02:24:17;;;;;;;4.15;3.75;;;14.90;99.90;;;;;;5043493;28;20056;-84
2023/09/03 02:26:45;;;;;;;4.32;3.72;;;14.90;96.40;;;;;;5059112;28;20129;-84
2023/09/03 02:29:13;;;;;;;3.83;3.20;;;14.80;91.50;;;;;;5061845;28;20041;-83
2023/09/03 02:31:40;;;;;;;3.20;2.75;;;14.80;94.70;;;;;;5034392;28;20044;-80
2023/09/03 02:34:07;;;;;;;3.10;2.80;;;14.80;99.90;;;;;;5054006;28;20449;-84
2023/09/03 02:36:34;;;;;;;3.85;3.30;;;14.80;99.90;;;;;;5056642;28;20060;-84
2023/09/03 02:39:02;;;;;;;3.53;3.13;;;14.80;99.90;;;;;;5046520;28;20037;-83
2023/09/03 02:41:32;;;;;;;4.13;3.72;;;14.80;99.90;;;;;;5024107;28;20071;-84
2023/09/03 02:43:59;;;;;;;4.28;3.55;;;14.80;99.90;;;;;;5016254;28;20115;-81
2023/09/03 02:46:27;;;;;;;4.10;3.30;;;14.80;99.90;;;;;;5040479;28;20065;-84
2023/09/03 02:48:54;;;;;;;3.92;3.50;;;14.60;97.00;;;;;;5051129;28;20128;-84
2023/09/03 02:51:21;;;;;;;4.40;3.85;;;14.60;99.90;;;;;;5052812;28;20053;-84
2023/09/03 02:53:51;;;;;;;4.00;3.60;;;14.50;99.90;;;;;;5014892;28;20107;-84
2023/09/03 02:56:18;;;;;;;4.13;3.72;;;14.50;99.90;;;;;;5059948;28;20491;-83
2023/09/03 02:58:48;;;;;;;3.58;3.28;;;14.60;99.90;;;;;;5039563;28;20056;-83
2023/09/03 03:01:17;;;;;;;3.20;2.88;;;14.60;99.90;;;;;;5051030;28;20512;-85
2023/09/03 03:03:44;;;;;;;3.75;3.30;;;14.50;99.90;;;;;;5018275;28;20041;-84
2023/09/03 03:06:13;;;;;;;3.97;3.58;;;14.50;99.90;;;;;;5060780;28;20056;-84
2023/09/03 03:08:40;;;;;;;4.10;3.70;;;14.50;99.90;;;;;;5025275;28;20048;-84
2023/09/03 03:11:10;;;;;;;3.95;3.60;;;14.50;99.90;;;;;;5010255;28;20482;-84
2023/09/03 03:13:38;;;;;;;4.15;3.75;;;14.50;99.90;;;;;;5040565;28;20403;-84
2023/09/03 03:16:13;;;;;;;3.08;2.78;;;14.50;99.90;;;;;;5048690;28;20837;-84
2023/09/03 03:18:41;;;;;;;2.92;2.63;;;14.50;99.90;;;;;;5039876;28;20045;-84
2023/09/03 03:21:14;;;;;;;2.90;2.60;;;14.50;94.90;;;;;;5040585;28;20064;-84
2023/09/03 03:23:41;;;;;;;3.20;2.90;;;14.40;98.30;;;;;;5037024;28;20111;-82
2023/09/03 03:26:08;;;;;;;3.22;2.92;;;14.40;99.90;;;;;;5040870;28;20607;-83
2023/09/03 03:28:35;;;;;;;3.13;2.70;;;14.40;99.90;;;;;;5049424;28;20486;-83
2023/09/03 03:31:12;;;;;;;3.47;3.10;;;14.40;99.90;;;;;;5031334;28;20037;-82
2023/09/03 03:33:39;;;;;;;4.60;3.28;;;14.40;99.90;;;;;;5036057;28;20064;-83
2023/09/03 03:36:07;;;;;;;3.22;2.83;;;14.40;99.90;;;;;;5053401;28;20451;-82
2023/09/03 03:38:33;;;;;;;3.40;3.00;;;14.40;99.90;;;;;;5037996;28;20057;-83
2023/09/03 03:41:08;;;;;;;3.47;3.10;;;14.30;99.90;;;;;;5036035;28;20078;-84
2023/09/03 03:43:39;;;;;;;3.20;2.90;;;14.30;99.90;;;;;;5036430;28;20037;-83
2023/09/03 03:46:06;;;;;;;3.90;2.92;;;14.30;99.90;;;;;;5021688;28;20068;-83
2023/09/03 03:48:34;;;;;;;3.72;3.25;;;14.30;99.90;;;;;;5034453;28;20126;-83
2023/09/03 03:51:01;;;;;;;3.25;2.85;;;14.30;99.90;;;;;;5054821;28;20143;-83
2023/09/03 03:53:27;;;;;;;3.42;3.13;;;14.30;99.90;;;;;;5048503;28;20056;-84
2023/09/03 03:56:05;;;;;;;2.90;2.50;;;14.20;95.70;;;;;;5031520;28;20052;-82
2023/09/03 03:58:35;;;;;;;3.53;3.17;;;14.20;94.70;;;;;;5032957;28;20682;-83
2023/09/03 04:01:19;;;;;;;3.83;2.85;;;14.10;94.70;;;;;;5034124;28;20058;-83
2023/09/03 04:03:48;;;;;;;3.65;3.05;;;14.10;99.90;;;;;;5054405;28;20059;-83
2023/09/03 04:06:16;;;;;;;2.97;2.67;;;14.00;95.70;;;;;;5032141;28;20045;-83
2023/09/03 04:08:46;;;;;;;3.88;3.33;;;14.00;99.90;;;;;;5032836;28;20052;-84
2023/09/03 04:11:14;;;;;;;3.20;2.90;;;14.00;99.90;;;;;;5050209;28;20080;-84
2023/09/03 04:13:41;;;;;;;3.08;2.40;;;14.00;99.40;;;;;;5018811;28;20053;-83
2023/09/03 04:16:08;;;;;;;2.63;2.42;;;14.00;88.90;;;;;;5059045;28;20128;-84
2023/09/03 04:18:36;;;;;;;2.63;2.42;;;13.90;92.00;;;;;;5044592;28;20098;-82
2023/09/03 04:21:02;;;;;;;2.88;2.55;;;14.00;98.80;;;;;;5020381;28;20072;-83
2023/09/03 04:23:29;;;;;;;3.08;2.72;;;13.90;97.50;;;;;;5061509;28;20048;-83
2023/09/03 04:25:58;;;;;;;2.58;2.38;;;13.90;99.90;;;;;;5019572;28;20048;-82
2023/09/03 04:28:25;;;;;;;3.30;2.78;;;13.90;99.90;;;;;;5036382;28;20059;-83
2023/09/03 04:30:55;;;;;;;2.83;2.50;;;13.90;99.90;;;;;;5052062;28;20059;-82
2023/09/03 04:33:23;;;;;;;2.90;2.38;;;13.90;99.90;;;;;;5033939;28;20053;-83
2023/09/03 04:35:55;;;;;;;2.40;1.92;;;13.90;97.90;;;;;;5051101;28;20160;-85
2023/09/03 04:38:22;;;;;;;3.00;2.50;;;13.90;99.90;;;;;;5043039;28;20051;-81
2023/09/03 04:40:49;;;;;;;2.20;1.92;;;13.90;99.90;;;;;;5044520;28;20059;-81
2023/09/03 04:43:17;;;;;;;2.28;1.67;;;13.90;99.90;;;;;;5034680;28;20033;-82
2023/09/03 04:45:48;;;;;;;2.30;2.10;;;13.90;99.70;;;;;;5030078;28;20049;-81
2023/09/03 04:48:15;;;;;;;2.22;1.90;;;14.00;99.90;;;;;;5049098;28;20098;-82
2023/09/03 04:50:43;;;;;;;2.13;1.92;;;14.00;99.90;;;;;;5048641;28;20052;-81
2023/09/03 04:53:12;;;;;;;2.53;2.28;;;14.00;99.90;;;;;;5047989;28;20764;-81
2023/09/03 04:55:40;;;;;;;3.05;2.65;;;14.10;99.90;;;;;;5017613;28;20633;-82
2023/09/03 04:58:07;;;;;;;2.60;2.40;;;14.10;99.90;;;;;;5023896;28;20160;-81
2023/09/03 05:00:34;;;;;;;3.08;2.67;;;14.10;99.90;;;;;;5031982;28;20041;-82
2023/09/03 05:03:04;;;;;;;3.55;3.17;;;14.20;99.90;;;;;;5030436;28;20369;-82
2023/09/03 05:05:39;;;;;;;3.45;2.97;;;14.20;99.90;;;;;;5017529;28;20041;-82
2023/09/03 05:08:06;;;;;;;2.90;2.60;;;14.20;99.90;;;;;;5039233;28;20391;-81
2023/09/03 05:10:34;;;;;;;3.70;3.03;;;14.20;99.90;;;;;;5035319;28;20052;-82
2023/09/03 05:13:03;;;;;;;3.55;3.20;;;14.20;99.90;;;;;;5025485;28;20102;-82
2023/09/03 05:15:30;;;;;;;3.47;3.15;;;14.30;99.90;;;;;;5026225;28;20073;-84
2023/09/03 05:18:00;;;;;;;3.95;3.30;;;14.30;99.90;;;;;;5043657;28;20072;-82
2023/09/03 05:20:27;;;;;;;3.67;3.38;;;14.40;99.90;;;;;;5024307;28;20072;-81
2023/09/03 05:22:54;;;;;;;3.40;2.95;;;14.40;99.90;;;;;;5015805;28;20053;-82
2023/09/03 05:25:21;;;;;;;3.47;3.13;;;14.40;99.90;;;;;;5042091;28;20061;-82
2023/09/03 05:27:48;;;;;;;3.20;2.50;;;14.40;99.90;;;;;;5023863;28;20046;-83
2023/09/03 05:30:15;;;;;;;3.88;3.17;;;14.40;99.90;;;;;;5021154;28;20132;-81
2023/09/03 05:32:42;;;;;;;2.88;2.58;;;14.40;99.90;;;;;;5042263;28;20206;-81
2023/09/03 05:35:09;;;;;;;3.15;2.80;;;14.40;99.90;;;;;;5021243;28;20049;-82
2023/09/03 05:37:36;;;;;;;2.80;2.47;;;14.40;99.90;;;;;;5025301;28;20041;-82
2023/09/03 05:40:04;;;;;;;3.53;3.05;;;14.40;99.90;;;;;;5021283;28;20045;-83
2023/09/03 05:42:32;;;;;;;3.30;3.00;;;14.40;99.90;;;;;;5010001;28;20055;-82
2023/09/03 05:44:59;;;;;;;3.30;2.63;;;14.50;99.90;;;;;;5018257;28;20045;-83
2023/09/03 05:47:26;;;;;;;3.03;2.67;;;14.50;99.90;;;;;;5007683;28;20140;-81
2023/09/03 05:49:55;;;;;;;3.00;2.63;;;14.60;99.90;;;;;;5039092;28;20175;-82
2023/09/03 05:52:21;;;;;;;3.20;2.90;;;14.60;99.90;;;;;;5042829;28;20072;-81
2023/09/03 05:54:48;;;;;;;2.75;2.50;;;14.60;99.90;;;;;;5042643;28;20056;-81
2023/09/03 05:57:15;;;;;;;3.30;2.90;;;14.70;99.90;;;;;;5042547;28;20053;-82
2023/09/03 05:59:42;;;;;;;2.85;2.55;;;14.70;99.90;;;;;;5020126;28;20080;-81
2023/09/03 06:02:09;;;;;;;2.70;2.50;;;14.80;99.90;;;;;;5015197;28;20489;-82
2023/09/03 06:04:36;;;;;;;3.13;2.83;;;14.80;99.90;;;;;;5030698;28;20056;-83
2023/09/03 06:07:04;;;;;;;3.85;2.83;;;14.90;99.90;;;;;;5014811;28;20057;-81
2023/09/03 06:09:31;;;;;;;3.22;2.92;;;14.90;99.90;;;;;;5046531;28;20099;-84
2023/09/03 06:11:58;;;;;;;3.00;2.70;;;15.00;99.90;;;;;;5011943;28;20049;-83
2023/09/03 06:14:25;;;;;;;3.10;2.80;;;15.00;99.90;;;;;;5023851;28;20144;-81
2023/09/03 06:16:53;;;;;;;2.60;2.35;;;15.00;99.90;;;;;;5048367;28;20057;-83
2023/09/03 06:19:22;;;;;;;3.03;2.50;;;15.10;99.90;;;;;;5048425;28;20075;-84
2023/09/03 06:21:48;;;;;;;3.40;2.67;;;15.10;99.90;;;;;;5015943;28;20064;-83
2023/09/03 06:24:16;;;;;;;2.75;2.42;;;15.10;99.90;;;;;;5044850;28;20052;-82
2023/09/03 06:26:43;;;;;;;2.42;2.20;;;15.20;99.90;;;;;;5018447;28;20491;-83
2023/09/03 06:29:11;;;;;;;2.40;2.20;;;15.30;99.90;;;;;;5052370;28;20049;-82
2023/09/03 06:31:38;;;;;;;2.70;2.20;;;15.30;99.90;;;;;;5041903;28;20052;-83
2023/09/03 06:34:05;;;;;;;2.83;2.40;;;15.40;99.90;;;;;;5032493;28;20398;-83
2023/09/03 06:36:32;;;;;;;2.50;2.30;;;15.40;99.90;;;;;;5048270;28;20037;-82
2023/09/03 06:38:59;;;;;;;2.80;2.45;;;15.40;99.90;;;;;;5045571;28;20057;-82
2023/09/03 06:41:26;;;;;;;2.70;2.50;;;15.50;99.90;;;;;;5012249;28;20110;-83
2023/09/03 06:43:54;;;;;;;2.53;2.15;;;15.50;99.90;;;;;;5021567;28;20053;-84
2023/09/03 06:46:21;;;;;;;2.78;2.30;;;15.60;99.90;;;;;;5028876;28;20148;-83
2023/09/03 06:48:48;;;;;;;2.50;2.30;;;15.60;99.90;;;;;;5044461;28;20501;-85
2023/09/03 06:51:18;;;;;;;3.00;2.50;;;15.70;99.90;;;;;;5023174;28;20179;-83
2023/09/03 06:53:45;;;;;;;2.60;2.17;;;15.70;99.90;;;;;;5042952;28;20073;-83
2023/09/03 06:56:12;;;;;;;2.60;2.25;;;15.80;99.90;;;;;;5020750;28;20045;-84
2023/09/03 06:58:40;;;;;;;2.97;2.45;;;15.80;99.90;;;;;;5047922;28;20051;-84
2023/09/03 07:01:08;;;;;;;2.58;2.30;;;15.80;99.90;;;;;;5040606;28;20129;-82
2023/09/03 07:03:35;;;;;;;2.47;2.22;;;15.80;99.90;;;;;;5014456;28;20112;-82
2023/09/03 07:06:01;;;;;;;2.13;1.80;;;15.90;99.90;;;;;;5030408;28;20337;-84
2023/09/03 07:08:29;;;;;;;2.58;2.28;;;16.00;99.90;;;;;;5032856;28;20046;-85
2023/09/03 07:11:00;;;;;;;3.13;2.35;;;16.00;99.90;;;;;;5049137;28;20055;-83
2023/09/03 07:13:27;;;;;;;3.13;2.75;;;16.10;99.90;;;;;;5016967;28;20045;-84
2023/09/03 07:15:54;;;;;;;2.78;2.38;;;16.10;99.90;;;;;;5040530;28;20080;-85
2023/09/03 07:18:21;;;;;;;2.90;2.50;;;16.20;99.90;;;;;;5016193;28;20071;-84
2023/09/03 07:20:48;;;;;;;2.78;2.45;;;16.20;99.90;;;;;;5028510;28;20128;-83
2023/09/03 07:23:15;;;;;;;2.25;2.00;;;16.30;99.90;;;;;;5023847;28;21767;-84
2023/09/03 07:25:42;;;;;;;2.10;1.80;;;16.30;99.90;;;;;;5030672;28;20076;-83
2023/09/03 07:28:09;;;;;;;2.47;2.20;;;16.30;99.90;;;;;;5041850;28;20110;-82
2023/09/03 07:30:38;;;;;;;2.20;1.95;;;16.40;99.90;;;;;;5041024;28;20466;-83
2023/09/03 07:33:05;;;;;;;2.10;1.90;;;16.40;99.90;;;;;;5011527;28;20053;-84
2023/09/03 07:35:33;;;;;;;2.10;1.88;;;16.40;99.90;;;;;;5025648;28;20070;-84
2023/09/03 07:37:59;;;;;;;2.40;2.20;;;16.50;99.90;;;;;;5022056;28;20057;-84
2023/09/03 07:40:28;;;;;;;3.47;3.05;;;16.50;99.90;;;;;;5045071;28;20117;-82
2023/09/03 07:42:56;;;;;;;3.25;2.67;;;16.60;99.90;;;;;;5028278;28;20068;-82
2023/09/03 07:45:23;;;;;;;2.05;1.85;;;16.70;99.90;;;;;;5010504;28;20069;-82
2023/09/03 07:47:50;;;;;;;2.58;2.30;;;16.80;99.90;;;;;;5011041;28;20057;-85
2023/09/03 07:50:18;;;;;;;2.53;2.05;;;16.90;99.90;;;;;;5041048;28;20128;-84
2023/09/03 07:52:45;;;;;;;2.60;2.17;;;17.00;99.90;;;;;;5047467;28;20045;-84
2023/09/03 07:55:12;;;;;;;2.10;1.67;;;17.10;98.40;;;;;;5037367;28;20167;-84
2023/09/03 07:57:39;;;;;;;2.17;1.98;;;17.20;93.80;;;;;;5043485;28;20123;-84
2023/09/03 08:00:07;;;;;;;2.35;1.95;;;17.30;76.90;;;;;;5044747;28;20657;-83
2023/09/03 08:02:33;;;;;;;2.83;2.35;;;17.40;66.60;;;;;;5046639;28;20045;-85
2023/09/03 08:05:01;;;;;;;3.53;2.22;;;17.50;54.70;;;;;;5046646;28;20500;-85
2023/09/03 08:07:27;;;;;;;2.30;2.05;;;17.60;46.90;;;;;;5047257;28;20049;-86
2023/09/03 08:09:55;;;;;;;2.70;2.20;;;17.70;64.70;;;;;;5022530;28;20075;-85
2023/09/03 08:12:22;;;;;;;2.15;1.83;;;17.90;26.40;;;;;;5046391;28;20142;-86
2023/09/03 08:14:49;;;;;;;2.20;1.70;;;18.00;1.00;;;;;;5026093;28;20057;-86
2023/09/03 08:17:16;;;;;;;1.70;1.55;;;18.00;1.00;;;;;;5048161;28;20045;-85
2023/09/03 08:19:43;;;;;;;2.35;1.65;;;18.10;1.00;;;;;;5047272;28;20045;-85
2023/09/03 08:22:10;;;;;;;2.05;1.85;;;18.20;1.00;;;;;;5048124;28;20435;-86
2023/09/03 08:24:37;;;;;;;1.95;1.60;;;18.20;1.00;;;;;;5044785;28;20046;-86
2023/09/03 08:27:04;;;;;;;2.17;1.95;;;18.30;1.00;;;;;;5047278;28;20048;-85
2023/09/03 08:29:30;;;;;;;1.40;1.30;;;18.40;3.00;;;;;;5036404;28;20053;-86
2023/09/03 08:31:57;;;;;;;2.17;1.63;;;18.60;1.00;;;;;;5049910;28;20080;-87
2023/09/03 08:34:28;;;;;;;1.98;1.77;;;18.70;1.00;;;;;;5053142;28;20048;-85
2023/09/03 08:36:55;;;;;;;1.95;1.75;;;18.70;1.00;;;;;;5039507;28;20136;-84
2023/09/03 08:39:22;;;;;;;1.65;1.55;;;18.80;1.00;;;;;;5044394;28;20045;-86
2023/09/03 08:41:49;;;;;;;1.45;1.17;;;18.90;1.00;;;;;;5046697;28;20045;-87
2023/09/03 08:44:42;;;;;;;1.98;1.75;;;19.10;1.00;;;;;;5044536;28;20080;-87
2023/09/03 08:47:10;;;;;;;2.20;1.70;;;19.20;1.00;;;;;;5033769;28;20045;-85
2023/09/03 08:49:37;;;;;;;2.22;1.88;;;19.40;99.90;;;;;;5046980;28;20057;-85
2023/09/03 08:52:04;;;;;;;1.90;1.70;;;19.50;99.90;;;;;;5046619;28;20098;-83
2023/09/03 08:54:31;;;;;;;2.75;2.03;;;19.60;99.90;;;;;;5030978;28;20130;-85
2023/09/03 08:56:58;;;;;;;1.98;1.63;;;19.70;99.90;;;;;;5029577;28;20088;-85
2023/09/03 08:59:25;;;;;;;2.45;2.15;;;19.90;99.90;;;;;;5035222;28;20160;-85
2023/09/03 09:01:53;;;;;;;1.83;1.70;;;20.10;99.90;;;;;;5025187;28;20457;-86
2023/09/03 09:04:20;;;;;;;2.53;1.52;;;20.20;93.70;;;;;;5014247;28;20053;-84
2023/09/03 09:06:47;;;;;;;1.98;1.70;;;20.30;19.40;;;;;;5045576;28;20060;-85
2023/09/03 09:09:14;;;;;;;2.28;1.80;;;20.40;1.00;;;;;;5030301;28;20141;-84
2023/09/03 09:11:45;;;;;;;1.83;1.67;;;20.50;1.00;;;;;;5029242;28;20049;-84
2023/09/03 09:14:28;;;;;;;1.88;1.70;;;20.60;99.90;;;;;;5027152;28;20049;-85
2023/09/03 09:16:55;;;;;;;1.70;1.27;;;20.70;99.90;;;;;;4994302;28;20045;-83
2023/09/03 09:19:22;;;;;;;1.90;1.70;;;20.80;99.90;;;;;;5027138;28;20072;-84
2023/09/03 09:21:49;;;;;;;1.85;1.60;;;20.80;99.90;;;;;;5026929;28;20049;-85
2023/09/03 09:24:17;;;;;;;1.98;1.52;;;20.80;99.90;;;;;;5011859;28;20144;-84
2023/09/03 09:26:44;;;;;;;1.92;1.52;;;20.80;1.00;;;;;;5028097;28;20052;-85
2023/09/03 09:29:10;;;;;;;1.70;1.40;;;20.80;1.00;;;;;;5047477;28;20068;-85
2023/09/03 09:31:37;;;;;;;1.50;1.40;;;20.80;1.00;;;;;;5046110;28;20481;-84
2023/09/03 09:34:14;;;;;;;1.58;1.33;;;20.80;99.90;;;;;;5027447;28;20053;-85
2023/09/03 09:36:54;;;;;;;2.00;1.80;;;20.80;99.90;;;;;;5030143;28;20096;-85
2023/09/03 09:39:21;;;;;;;1.30;1.20;;;20.90;1.00;;;;;;5042604;28;20052;-85
2023/09/03 09:42:05;;;;;;;4.72;2.20;;;20.90;99.90;;;;;;5048727;28;20075;-83
2023/09/03 09:44:31;;;;;;;2.03;1.73;;;21.10;99.90;;;;;;5019857;28;20090;-86
2023/09/03 09:47:00;;;;;;;1.48;1.35;;;21.30;99.90;;;;;;5049009;28;20167;-84
2023/09/03 09:49:27;;;;;;;1.90;1.50;;;21.50;1.00;;;;;;5037481;28;20435;-81
2023/09/03 09:51:54;;;;;;;1.88;1.48;;;21.60;99.90;;;;;;5024326;28;20068;-79
2023/09/03 09:54:20;;;;;;;2.28;2.08;;;21.60;1.00;;;;;;5043575;28;20053;-79
2023/09/03 09:56:47;;;;;;;1.77;1.52;;;21.60;1.00;;;;;;5041849;28;20134;-78
2023/09/03 09:59:16;;;;;;;1.90;1.45;;;21.60;7.30;;;;;;5024506;28;20048;-79
2023/09/03 10:01:46;;;;;;;3.55;2.40;;;21.80;1.00;;;;;;5024085;28;21348;-79
2023/09/03 10:04:13;;;;;;;2.35;2.03;;;21.90;1.00;;;;;;5040930;28;20114;-79
2023/09/03 10:06:40;;;;;;;2.00;1.65;;;21.90;1.00;;;;;;5044924;28;20079;-79
2023/09/03 10:09:08;;;;;;;1.55;1.42;;;22.10;99.90;;;;;;5028048;28;20041;-79
2023/09/03 10:11:34;;;;;;;2.15;1.60;;;22.10;78.80;;;;;;5025871;28;20049;-79
2023/09/03 10:14:01;;;;;;;2.08;1.77;;;22.20;1.00;;;;;;5029132;28;20111;-79
2023/09/03 10:16:28;;;;;;;2.10;1.73;;;22.20;1.00;;;;;;5024180;28;20045;-80
2023/09/03 10:18:58;;;;;;;1.70;1.50;;;22.20;99.90;;;;;;5028461;28;20060;-79
2023/09/03 10:21:26;;;;;;;2.40;1.67;;;22.30;99.90;;;;;;5028574;28;20102;-79
2023/09/03 10:24:13;;;;;;;1.67;1.55;;;22.40;1.00;;;;;;5028008;28;20136;-79
2023/09/03 10:26:44;;;;;;;1.33;1.20;;;22.50;99.90;;;;;;5021941;28;20056;-79
2023/09/03 10:29:12;;;;;;;1.70;1.55;;;22.70;99.90;;;;;;5012307;28;20044;-80
2023/09/03 10:31:38;;;;;;;2.10;1.70;;;22.80;99.90;;;;;;5028566;28;20439;-82
2023/09/03 10:34:10;;;;;;;1.70;1.42;;;22.90;99.90;;;;;;5039213;28;20131;-83
2023/09/03 10:36:37;;;;;;;1.83;1.35;;;23.00;99.90;;;;;;5039348;28;20166;-82
2023/09/03 10:39:23;;;;;;;2.35;1.77;;;23.10;1.00;;;;;;5024870;28;20246;-81
2023/09/03 10:42:14;;;;;;;2.70;2.50;;;23.10;91.00;;;;;;5037798;28;20147;-81
2023/09/03 10:44:49;;;;;;;2.10;1.70;;;23.10;91.60;;;;;;5027958;28;20053;-81
2023/09/03 10:47:18;;;;;;;2.08;1.70;;;23.20;99.90;;;;;;5021259;28;20103;-81
2023/09/03 10:49:45;;;;;;;2.83;2.40;;;23.30;1.00;;;;;;5037958;28;20065;-81
2023/09/03 10:52:31;;;;;;;2.33;1.80;;;23.30;1.00;;;;;;5041800;28;20077;-81
2023/09/03 10:55:17;;;;;;;2.33;2.00;;;23.50;1.00;;;;;;5041232;28;20136;-81
2023/09/03 10:57:45;;;;;;;2.20;1.85;;;23.80;1.00;;;;;;5031874;28;20144;-81
2023/09/03 11:00:20;;;;;;;2.13;1.88;;;24.00;1.00;;;;;;5011321;28;20384;-82
2023/09/03 11:02:48;;;;;;;2.58;2.35;;;24.20;1.00;;;;;;5019672;28;20053;-82
2023/09/03 11:05:20;;;;;;;2.15;1.77;;;24.30;1.00;;;;;;5039234;28;20041;-81
2023/09/03 11:07:49;;;;;;;1.95;1.73;;;24.40;1.00;;;;;;5041269;28;20173;-82
2023/09/03 11:10:27;;;;;;;2.20;2.00;;;24.40;1.00;;;;;;5012180;28;20699;-82
2023/09/03 11:12:54;;;;;;;3.38;2.75;;;24.50;1.00;;;;;;5046046;28;20103;-82
2023/09/03 11:15:21;;;;;;;2.70;2.30;;;24.60;1.00;;;;;;5042595;28;20049;-82
2023/09/03 11:17:54;;;;;;;2.53;2.33;;;24.90;1.00;;;;;;5044170;28;20045;-80
2023/09/03 11:20:31;;;;;;;2.22;2.00;;;25.20;1.00;;;;;;5045119;28;20449;-81
2023/09/03 11:23:16;;;;;;;2.53;2.33;;;25.40;1.00;;;;;;5045564;28;20125;-82
2023/09/03 11:25:43;;;;;;;2.67;2.40;;;25.60;1.00;;;;;;5007421;28;20041;-81
2023/09/03 11:28:13;;;;;;;2.90;2.55;;;25.90;1.00;;;;;;5021968;28;20056;-82
2023/09/03 11:30:43;;;;;;;2.33;2.13;;;26.10;1.00;;;;;;5038486;28;20499;-82
2023/09/03 11:33:27;;;;;;;2.35;2.15;;;26.30;1.00;;;;;;5040329;28;20107;-82
2023/09/03 11:35:54;;;;;;;2.22;2.00;;;26.60;1.00;;;;;;5038546;28;20053;-82
2023/09/03 11:38:25;;;;;;;2.33;2.10;;;26.80;1.00;;;;;;5037108;28;20042;-82
2023/09/03 11:40:55;;;;;;;2.28;2.05;;;26.80;1.00;;;;;;5047816;28;20450;-81
2023/09/03 11:43:22;;;;;;;2.53;2.33;;;26.60;99.90;;;;;;5038864;28;20064;-81
2023/09/03 11:45:50;;;;;;;1.88;1.58;;;26.40;99.90;;;;;;5033970;28;20053;-81
2023/09/03 11:48:27;;;;;;;1.83;1.58;;;26.80;99.90;;;;;;5037271;28;20052;-81
2023/09/03 11:50:54;;;;;;;2.42;1.83;;;27.00;99.90;;;;;;5009628;28;20093;-82
2023/09/03 11:53:22;;;;;;;2.03;1.80;;;27.40;99.90;;;;;;5016865;28;20160;-82
2023/09/03 11:55:54;;;;;;;2.38;2.10;;;27.70;99.90;;;;;;5013292;28;20065;-81
2023/09/03 11:58:23;;;;;;;2.10;1.90;;;27.90;99.90;;;;;;5034103;28;20053;-82
2023/09/03 12:00:50;;;;;;;3.03;2.53;;;28.10;99.90;;;;;;5039210;28;20073;-82
2023/09/03 12:03:18;;;;;;;2.47;2.28;;;28.20;99.90;;;;;;5040166;28;20111;-83
2023/09/03 12:05:45;;;;;;;2.10;1.70;;;28.00;99.90;;;;;;5031625;28;20059;-82
2023/09/03 12:08:12;;;;;;;2.03;1.77;;;27.80;99.90;;;;;;5035988;28;20049;-83
2023/09/03 12:10:39;;;;;;;2.20;1.83;;;27.70;99.90;;;;;;5035595;28;20049;-82
2023/09/03 12:13:09;;;;;;;2.00;1.80;;;27.40;99.90;;;;;;5027935;28;20123;-84
2023/09/03 12:15:36;;;;;;;1.90;1.70;;;27.40;99.90;;;;;;5042578;28;20045;-83
2023/09/03 12:18:09;;;;;;;3.42;3.13;;;27.60;99.90;;;;;;5005731;28;20052;-83
2023/09/03 12:20:41;;;;;;;3.70;3.35;;;27.50;99.90;;;;;;5022347;28;20049;-83
2023/09/03 12:23:20;;;;;;;3.33;3.03;;;27.50;99.90;;;;;;5023317;28;20831;-83
2023/09/03 12:25:47;;;;;;;2.38;2.03;;;27.80;99.90;;;;;;5017513;28;20892;-83
2023/09/03 12:28:15;;;;;;;2.75;2.47;;;28.40;99.90;;;;;;5014850;28;20045;-83
2023/09/03 12:31:00;;;;;;;2.13;1.92;;;28.60;99.90;;;;;;5039871;28;20049;-83
2023/09/03 12:33:33;;;;;;;3.00;2.35;;;28.70;99.90;;;;;;5030137;28;20049;-83
2023/09/03 12:36:08;;;;;;;1.90;1.70;;;28.90;99.90;;;;;;5055044;28;20180;-83
2023/09/03 12:38:58;;;;;;;2.42;2.10;;;29.00;99.90;;;;;;5021968;28;20449;-84
2023/09/03 12:41:30;;;;;;;2.00;1.80;;;29.10;99.90;;;;;;4998186;28;20111;-84
2023/09/03 12:44:04;;;;;;;2.63;2.17;;;28.90;99.90;;;;;;5005279;28;20057;-84
2023/09/03 12:46:33;;;;;;;1.50;1.40;;;28.90;99.90;;;;;;5040712;28;20300;-83
2023/09/03 12:49:00;;;;;;;1.48;1.38;;;29.20;99.90;;;;;;5040947;28;20415;-84
2023/09/03 12:51:27;;;;;;;1.55;1.45;;;29.30;99.90;;;;;;5024868;28;20122;-84
2023/09/03 12:53:54;;;;;;;1.70;1.33;;;29.30;99.90;;;;;;5024219;28;20157;-84
2023/09/03 12:56:21;;;;;;;1.58;1.48;;;29.30;99.90;;;;;;5019800;28;20127;-84
2023/09/03 12:58:47;;;;;;;1.70;1.60;;;29.40;99.90;;;;;;5037397;28;20046;-84